East Bridgewater, Massachusetts
Current Conditions -  °F | °C
As of 1:52 PM on Thursday 18 Dec 2014 (Local Time) from KTAN Reporting Station
Overcast Overcast  
Wind Chill: 36°   Ceiling: 3600
Heat Index: 43°   Visibility: 10mi
Dew Point: 28°   Wind: 15mph
Humidity: 56%   Direction: 290°WNW
Pressure: 29.78"   Gusts: 21mph
Location:  42.03°N, 70.96°W
Report Text: KTAN 181852Z AUTO 29013G18KT 10SM OVC036 06/M02 A2978 RMK AO2 SLP083 T00611022
Loading
Personal Weather Stations






























Interactive Weather Map New forecast layout! Learn more

10-Day Weather Forecast

Advertisements
Track Severe Weather on mobile